createdAt,value
2023-05-11T00:02:42.111Z,101821.78
2023-05-11T00:05:49.266Z,101818.72
2023-05-11T00:08:52.145Z,101819.22
2023-05-11T00:11:56.061Z,101811.91
2023-05-11T00:14:58.088Z,101815.34
2023-05-11T00:18:00.368Z,101812.63
2023-05-11T00:21:03.347Z,101817.53
2023-05-11T00:24:06.174Z,101821.94
2023-05-11T00:27:08.405Z,101820.25
2023-05-11T00:30:11.194Z,101809.91
2023-05-11T00:33:13.297Z,101816.69
2023-05-11T00:36:15.670Z,101806.13
2023-05-11T00:39:18.449Z,101805.63
2023-05-11T00:42:20.763Z,101817.69
2023-05-11T00:45:23.440Z,101819.19
2023-05-11T00:48:25.492Z,101812.22
2023-05-11T00:51:28.095Z,101814.75
2023-05-11T00:54:31.430Z,101814.75
2023-05-11T00:57:36.129Z,101813.06
2023-05-11T01:00:38.599Z,101820.03
2023-05-11T01:03:41.527Z,101811.19
2023-05-11T01:07:00.402Z,101815.78
2023-05-11T01:10:06.962Z,101815.28
2023-05-11T01:13:17.557Z,101813.41
2023-05-11T01:16:25.682Z,101817.81
2023-05-11T01:19:38.672Z,101810.19
2023-05-11T01:23:04.182Z,101817.81
2023-05-11T01:26:45.324Z,101812.56
2023-05-11T01:29:57.933Z,101818.16
2023-05-11T01:33:08.282Z,101810.34
2023-05-11T01:36:12.866Z,101811.38
2023-05-11T01:39:18.160Z,101810.69
2023-05-11T01:42:25.226Z,101814.09
2023-05-11T01:45:29.471Z,101817.44
2023-05-11T01:48:35.803Z,101812.19
2023-05-11T01:51:40.133Z,101800.81
2023-05-11T01:54:44.141Z,101814.88
2023-05-11T01:57:47.564Z,101813.69
2023-05-11T02:00:50.505Z,101813.00
2023-05-11T02:03:54.734Z,101814.38
2023-05-11T02:06:59.512Z,101817.06
2023-05-11T02:10:03.049Z,101813.00
2023-05-11T02:13:10.098Z,101819.97
2023-05-11T02:16:15.827Z,101817.44
2023-05-11T02:19:20.704Z,101818.47
2023-05-11T02:22:24.024Z,101824.88
2023-05-11T02:25:26.776Z,101823.50
2023-05-11T02:28:32.026Z,101831.97
2023-05-11T02:31:39.316Z,101819.75
2023-05-11T02:34:43.954Z,101833.00
2023-05-11T02:37:49.703Z,101832.28
2023-05-11T02:40:57.853Z,101820.06
2023-05-11T02:44:05.373Z,101839.88
2023-05-11T02:47:12.968Z,101841.63
2023-05-11T02:50:18.573Z,101830.25
2023-05-11T02:53:23.244Z,101843.63
2023-05-11T02:56:26.314Z,101839.44
2023-05-11T02:59:30.994Z,101840.41
2023-05-11T03:02:33.402Z,101846.00
2023-05-11T03:05:35.802Z,101841.75
2023-05-11T03:08:38.738Z,101850.25
2023-05-11T03:11:41.849Z,101839.38
2023-05-11T03:14:45.114Z,101849.56
2023-05-11T03:17:49.371Z,101864.00
2023-05-11T03:20:52.154Z,101855.69
2023-05-11T03:23:55.108Z,101860.91
2023-05-11T03:26:58.144Z,101851.75
2023-05-11T03:30:08.130Z,101854.78
2023-05-11T03:33:14.727Z,101863.69
2023-05-11T03:36:18.054Z,101869.56
2023-05-11T03:39:22.311Z,101869.44
2023-05-11T03:42:26.820Z,101877.56
2023-05-11T03:45:31.902Z,101872.47
2023-05-11T03:48:41.972Z,101871.28
2023-05-11T03:51:45.190Z,101872.66
2023-05-11T03:54:47.910Z,101869.94
2023-05-11T03:57:50.224Z,101873.66
2023-05-11T04:00:53.047Z,101876.72
2023-05-11T04:03:55.685Z,101876.66
2023-05-11T04:07:01.474Z,101873.81
2023-05-11T04:10:04.988Z,101879.19
2023-05-11T04:13:07.055Z,101891.38
2023-05-11T04:16:09.162Z,101885.19
2023-05-11T04:19:11.752Z,101894.84
2023-05-11T04:22:14.251Z,101894.66
2023-05-11T04:25:17.911Z,101890.38
2023-05-11T04:28:22.584Z,101894.75
2023-05-11T04:31:24.683Z,101899.34
2023-05-11T04:34:26.890Z,101901.72
2023-05-11T04:37:32.822Z,101896.81
2023-05-11T04:40:38.858Z,101905.81
2023-05-11T04:43:42.113Z,101900.81
2023-05-11T04:46:46.761Z,101902.22
2023-05-11T04:49:48.855Z,101893.25
2023-05-11T04:52:51.190Z,101901.75
2023-05-11T04:55:55.314Z,101895.97
2023-05-11T04:58:57.593Z,101905.31
2023-05-11T05:02:03.647Z,101896.00
2023-05-11T05:05:06.917Z,101900.06
2023-05-11T05:08:09.822Z,101901.75
2023-05-11T05:11:20.048Z,101901.78
2023-05-11T05:14:22.252Z,101895.50
2023-05-11T05:17:24.428Z,101902.81
2023-05-11T05:20:26.593Z,101908.13
2023-05-11T05:23:29.056Z,101910.00
2023-05-11T05:26:31.160Z,101905.44
2023-05-11T05:29:37.679Z,101906.78
2023-05-11T05:32:40.327Z,101909.06
2023-05-11T05:35:47.784Z,101915.69
2023-05-11T05:38:51.673Z,101915.53
2023-05-11T05:41:54.125Z,101907.63
2023-05-11T05:44:57.019Z,101913.28
2023-05-11T05:48:01.789Z,101904.91
2023-05-11T05:51:04.200Z,101908.31
2023-05-11T05:54:06.885Z,101909.34
2023-05-11T05:57:09.048Z,101912.28
2023-05-11T06:00:13.707Z,101924.34
2023-05-11T06:03:15.980Z,101910.59
2023-05-11T06:06:18.224Z,101909.31
2023-05-11T06:09:21.793Z,101908.91
2023-05-11T06:12:24.453Z,101914.19
2023-05-11T06:15:30.121Z,101917.00
2023-05-11T06:18:38.178Z,101917.16
2023-05-11T06:21:43.814Z,101909.06
2023-05-11T06:24:47.115Z,101921.22
2023-05-11T06:27:49.621Z,101915.84
2023-05-11T06:30:51.907Z,101916.75
2023-05-11T06:33:54.045Z,101920.25
2023-05-11T06:37:00.706Z,101922.19
2023-05-11T06:40:03.496Z,101926.72
2023-05-11T06:43:05.687Z,101919.00
2023-05-11T06:46:22.432Z,101921.84
2023-05-11T06:49:24.665Z,101919.56
2023-05-11T06:52:28.721Z,101917.22
2023-05-11T06:55:30.936Z,101909.50
2023-05-11T06:58:32.904Z,101909.16
2023-05-11T07:01:36.701Z,101909.97
2023-05-11T07:04:39.442Z,101909.41
2023-05-11T07:07:42.219Z,101909.78
2023-05-11T07:10:44.497Z,101911.28
2023-05-11T07:13:46.983Z,101906.00
2023-05-11T07:16:53.088Z,101903.84
2023-05-11T07:19:55.669Z,101906.00
2023-05-11T07:22:59.576Z,101902.44
2023-05-11T07:26:04.045Z,101901.13
2023-05-11T07:29:06.080Z,101903.28
2023-05-11T07:32:08.427Z,101904.41
2023-05-11T07:35:11.184Z,101899.03
2023-05-11T07:38:13.898Z,101904.19
2023-05-11T07:41:20.637Z,101903.13
2023-05-11T07:44:23.218Z,101906.53
2023-05-11T07:47:25.448Z,101906.69
2023-05-11T07:50:27.909Z,101907.44
2023-05-11T07:53:30.145Z,101907.63
2023-05-11T07:56:32.143Z,101907.63
2023-05-11T07:59:34.238Z,101898.72
2023-05-11T08:02:36.369Z,101905.19
2023-05-11T08:05:42.152Z,101909.41
2023-05-11T08:08:45.227Z,101914.69
2023-05-11T08:11:47.719Z,101913.81
2023-05-11T08:14:51.312Z,101908.84
2023-05-11T08:17:54.421Z,101904.22
2023-05-11T08:20:56.458Z,101896.84
2023-05-11T08:23:59.157Z,101901.66
2023-05-11T08:27:01.764Z,101899.00
2023-05-11T08:30:04.449Z,101903.44
2023-05-11T08:33:22.786Z,101908.88
2023-05-11T08:36:28.749Z,101912.16
2023-05-11T08:39:52.118Z,101908.13
2023-05-11T08:42:57.584Z,101905.41
2023-05-11T08:46:07.540Z,101915.09
2023-05-11T08:49:34.994Z,101916.09
2023-05-11T08:52:44.533Z,101908.69
2023-05-11T08:55:48.028Z,101909.53
2023-05-11T08:58:52.611Z,101904.44
2023-05-11T09:02:14.623Z,101899.34
2023-05-11T09:05:17.494Z,101899.72
2023-05-11T09:08:22.253Z,101896.34
2023-05-11T09:11:25.370Z,101903.47
2023-05-11T09:14:28.037Z,101903.94
2023-05-11T09:17:31.153Z,101904.59
2023-05-11T09:20:35.142Z,101903.28
2023-05-11T09:23:37.121Z,101898.50
2023-05-11T09:26:39.345Z,101903.47
2023-05-11T09:29:41.908Z,101900.91
2023-05-11T09:32:49.325Z,101895.09
2023-05-11T09:35:52.133Z,101894.47
2023-05-11T09:38:57.322Z,101893.56
2023-05-11T09:42:31.646Z,101893.00
2023-05-11T09:45:42.557Z,101887.00
2023-05-11T09:48:44.669Z,101887.25
2023-05-11T09:51:47.040Z,101896.13
2023-05-11T09:54:52.685Z,101883.56
2023-05-11T09:58:00.075Z,101880.72
2023-05-11T10:01:02.507Z,101876.59
2023-05-11T10:04:17.688Z,101875.84
2023-05-11T10:07:35.644Z,101871.91
2023-05-11T10:10:37.728Z,101862.53
2023-05-11T10:13:40.540Z,101870.13
2023-05-11T10:16:45.106Z,101866.75
2023-05-11T10:19:50.052Z,101860.53
2023-05-11T10:22:54.135Z,101864.28
2023-05-11T10:25:58.187Z,101869.47
2023-05-11T10:29:07.608Z,101869.34
2023-05-11T10:32:11.182Z,101865.13
2023-05-11T10:35:13.841Z,101871.59
2023-05-11T10:38:17.962Z,101861.91
2023-05-11T10:41:34.965Z,101868.56
2023-05-11T10:44:57.927Z,101870.50
2023-05-11T10:48:25.405Z,101867.38
2023-05-11T10:51:38.439Z,101864.16
2023-05-11T10:55:11.611Z,101864.69
2023-05-11T10:58:20.941Z,101859.72
2023-05-11T11:01:42.781Z,101863.56
2023-05-11T11:04:47.569Z,101866.09
2023-05-11T11:08:07.739Z,101860.38
2023-05-11T11:11:32.221Z,101863.56
2023-05-11T11:14:57.317Z,101853.41
2023-05-11T11:18:24.025Z,101859.53
2023-05-11T11:21:43.012Z,101857.66
2023-05-11T11:24:46.875Z,101848.50
2023-05-11T11:27:52.783Z,101859.13
2023-05-11T11:31:27.688Z,101857.09
2023-05-11T11:34:30.020Z,101856.25
2023-05-11T11:38:04.504Z,101843.28
2023-05-11T11:41:10.335Z,101861.00
2023-05-11T11:44:22.014Z,101849.22
2023-05-11T11:47:27.352Z,101848.19
2023-05-11T11:50:31.073Z,101840.56
2023-05-11T11:53:36.109Z,101849.69
2023-05-11T11:56:40.148Z,101846.81
2023-05-11T11:59:48.463Z,101841.63
2023-05-11T12:02:50.605Z,101839.41
2023-05-11T12:05:57.126Z,101840.44
2023-05-11T12:08:59.412Z,101842.69
2023-05-11T12:12:16.755Z,101832.84
2023-05-11T12:15:30.434Z,101834.63
2023-05-11T12:18:32.438Z,101830.03
2023-05-11T12:21:34.609Z,101821.78
2023-05-11T12:24:41.406Z,101819.56
2023-05-11T12:27:50.338Z,101823.13
2023-05-11T12:31:21.706Z,101823.44
2023-05-11T12:34:24.023Z,101803.53
2023-05-11T12:37:34.725Z,101793.84
2023-05-11T12:40:39.187Z,101808.41
2023-05-11T12:43:42.520Z,101805.69
2023-05-11T12:46:49.054Z,101800.72
2023-05-11T12:49:51.270Z,101800.34
2023-05-11T12:52:53.389Z,101798.94
2023-05-11T12:55:59.827Z,101796.50
2023-05-11T12:59:02.028Z,101802.56
2023-05-11T13:02:10.115Z,101791.00
2023-05-11T13:05:14.767Z,101792.03
2023-05-11T13:08:19.818Z,101791.34
2023-05-11T13:11:25.371Z,101796.19
2023-05-11T13:14:31.504Z,101792.59
2023-05-11T13:17:36.292Z,101784.88
2023-05-11T13:20:38.721Z,101783.84
2023-05-11T13:23:41.801Z,101796.97
2023-05-11T13:26:44.905Z,101790.03
2023-05-11T13:29:46.910Z,101792.34
2023-05-11T13:32:49.433Z,101775.97
2023-05-11T13:35:53.709Z,101778.63
2023-05-11T13:38:55.990Z,101772.19
2023-05-11T13:41:58.028Z,101786.78
2023-05-11T13:45:00.091Z,101770.78
2023-05-11T13:48:02.646Z,101773.09
2023-05-11T13:51:04.782Z,101779.38
2023-05-11T13:54:08.243Z,101772.22
2023-05-11T13:57:28.674Z,101779.94
2023-05-11T14:00:30.816Z,101780.31
2023-05-11T14:03:33.824Z,101780.53
2023-05-11T14:06:37.092Z,101777.38
2023-05-11T14:09:41.157Z,101769.56
2023-05-11T14:12:43.424Z,101770.66
2023-05-11T14:15:45.499Z,101770.75
2023-05-11T14:18:48.494Z,101777.47
2023-05-11T14:21:50.759Z,101774.97
2023-05-11T14:24:52.807Z,101769.00
2023-05-11T14:27:55.681Z,101774.22
2023-05-11T14:30:58.356Z,101768.41
2023-05-11T14:34:00.504Z,101778.28
2023-05-11T14:37:02.849Z,101769.97
2023-05-11T14:40:06.204Z,101759.28
2023-05-11T14:43:08.272Z,101767.81
2023-05-11T14:46:10.649Z,101770.06
2023-05-11T14:49:12.801Z,101768.81
2023-05-11T14:52:14.875Z,101776.25
2023-05-11T14:55:17.198Z,101770.19
2023-05-11T14:58:19.326Z,101771.19
2023-05-11T15:01:21.739Z,101771.31
2023-05-11T15:04:23.861Z,101768.31
2023-05-11T15:07:26.974Z,101764.78
2023-05-11T15:10:29.130Z,101764.47
2023-05-11T15:13:31.118Z,101761.81
2023-05-11T15:16:33.534Z,101764.03
2023-05-11T15:19:35.723Z,101766.75
2023-05-11T15:22:37.844Z,101764.13
2023-05-11T15:25:39.834Z,101768.59
2023-05-11T15:28:41.951Z,101758.19
2023-05-11T15:31:49.457Z,101770.97
2023-05-11T15:34:59.675Z,101770.06
2023-05-11T15:38:03.617Z,101773.59
2023-05-11T15:41:05.894Z,101764.28
2023-05-11T15:44:08.008Z,101772.66
2023-05-11T15:47:10.107Z,101761.47
2023-05-11T15:50:12.957Z,101767.13
2023-05-11T15:53:15.108Z,101773.31
2023-05-11T15:56:17.218Z,101760.84
2023-05-11T15:59:20.272Z,101761.41
2023-05-11T16:02:22.714Z,101765.09
2023-05-11T16:05:27.073Z,101767.16
2023-05-11T16:08:29.179Z,101763.78
2023-05-11T16:11:31.224Z,101769.34
2023-05-11T16:14:33.232Z,101757.06
2023-05-11T16:17:35.343Z,101771.53
2023-05-11T16:20:38.757Z,101764.31
2023-05-11T16:23:41.644Z,101771.81
2023-05-11T16:26:43.880Z,101778.28
2023-05-11T16:29:45.880Z,101771.34
2023-05-11T16:32:48.008Z,101770.56
2023-05-11T16:35:50.575Z,101773.00
2023-05-11T16:38:52.648Z,101775.47
2023-05-11T16:41:54.789Z,101780.03
2023-05-11T16:44:57.059Z,101781.44
2023-05-11T16:48:02.372Z,101781.97
2023-05-11T16:51:04.454Z,101787.16
2023-05-11T16:54:06.937Z,101781.50
2023-05-11T16:57:09.423Z,101782.06
2023-05-11T17:00:18.635Z,101785.91
2023-05-11T17:03:21.066Z,101791.66
2023-05-11T17:06:24.787Z,101776.56
2023-05-11T17:09:27.015Z,101787.16
2023-05-11T17:12:29.805Z,101783.25
2023-05-11T17:15:32.487Z,101773.75
2023-05-11T17:18:34.694Z,101783.53
2023-05-11T17:21:38.212Z,101782.41
2023-05-11T17:24:42.232Z,101779.06
2023-05-11T17:27:45.094Z,101779.06
2023-05-11T17:30:52.970Z,101774.66
2023-05-11T17:33:55.113Z,101790.63
2023-05-11T17:36:57.510Z,101791.00
2023-05-11T17:40:01.321Z,101786.31
2023-05-11T17:43:04.047Z,101790.91
2023-05-11T17:46:06.334Z,101791.84
2023-05-11T17:49:09.074Z,101797.88
2023-05-11T17:52:11.826Z,101795.84
2023-05-11T17:55:14.751Z,101804.22
2023-05-11T17:58:19.656Z,101804.38
2023-05-11T18:01:22.856Z,101807.56
2023-05-11T18:04:24.958Z,101807.72
2023-05-11T18:07:26.952Z,101818.25
2023-05-11T18:10:28.960Z,101824.88
2023-05-11T18:13:31.821Z,101817.59
2023-05-11T18:16:34.772Z,101822.13
2023-05-11T18:19:39.516Z,101826.34
2023-05-11T18:22:41.698Z,101828.41
2023-05-11T18:25:45.015Z,101827.50
2023-05-11T18:28:47.360Z,101831.34
2023-05-11T18:31:49.825Z,101831.25
2023-05-11T18:34:52.067Z,101830.69
2023-05-11T18:37:54.270Z,101835.84
2023-05-11T18:40:56.569Z,101830.97
2023-05-11T18:43:58.848Z,101844.50
2023-05-11T18:47:01.091Z,101848.63
2023-05-11T18:50:04.546Z,101849.16
2023-05-11T18:53:06.651Z,101840.41
2023-05-11T18:56:11.491Z,101849.97
2023-05-11T18:59:15.053Z,101854.94
2023-05-11T19:02:18.176Z,101857.16
2023-05-11T19:05:21.844Z,101862.59
2023-05-11T19:08:28.926Z,101856.31
2023-05-11T19:11:31.127Z,101844.59
2023-05-11T19:14:35.010Z,101857.16
2023-05-11T19:17:37.306Z,101846.09
2023-05-11T19:20:42.264Z,101850.66
2023-05-11T19:23:44.427Z,101847.16
2023-05-11T19:26:58.616Z,101852.13
2023-05-11T19:30:09.944Z,101849.47
2023-05-11T19:33:12.031Z,101853.13
2023-05-11T19:36:14.069Z,101851.28
2023-05-11T19:39:17.649Z,101852.72
2023-05-11T19:42:28.673Z,101847.72
2023-05-11T19:45:43.446Z,101853.16
2023-05-11T19:48:45.640Z,101856.28
2023-05-11T19:51:47.687Z,101857.63
2023-05-11T19:54:49.728Z,101846.78
2023-05-11T19:57:52.079Z,101858.50
2023-05-11T20:00:54.905Z,101849.84
2023-05-11T20:03:57.291Z,101857.34
2023-05-11T20:06:59.584Z,101846.34
2023-05-11T20:10:05.899Z,101861.59
2023-05-11T20:13:08.648Z,101855.88
2023-05-11T20:16:11.949Z,101855.03
2023-05-11T20:19:14.561Z,101862.19
2023-05-11T20:22:19.460Z,101864.75
2023-05-11T20:25:21.923Z,101862.09
2023-05-11T20:28:27.369Z,101861.94
2023-05-11T20:31:30.766Z,101864.16
2023-05-11T20:34:34.597Z,101867.88
2023-05-11T20:37:36.917Z,101866.88
2023-05-11T20:40:38.964Z,101864.88
2023-05-11T20:43:42.867Z,101872.47
2023-05-11T20:46:49.743Z,101878.06
2023-05-11T20:49:51.895Z,101875.72
2023-05-11T20:52:54.307Z,101868.91
2023-05-11T20:55:57.032Z,101875.72
2023-05-11T20:59:01.533Z,101871.31
2023-05-11T21:02:03.644Z,101868.41
2023-05-11T21:05:06.157Z,101871.50
2023-05-11T21:08:08.237Z,101868.28
2023-05-11T21:11:10.649Z,101870.63
2023-05-11T21:14:12.732Z,101881.31
2023-05-11T21:17:14.736Z,101883.19
2023-05-11T21:20:17.909Z,101887.94
2023-05-11T21:23:20.100Z,101872.31
2023-05-11T21:26:22.276Z,101885.72
2023-05-11T21:29:24.316Z,101879.78
2023-05-11T21:32:26.381Z,101887.59
2023-05-11T21:35:28.409Z,101879.44
2023-05-11T21:38:30.417Z,101882.69
2023-05-11T21:41:32.476Z,101883.00
2023-05-11T21:44:34.667Z,101881.19
2023-05-11T21:47:37.258Z,101872.19
2023-05-11T21:50:39.451Z,101877.94
2023-05-11T21:53:41.580Z,101887.94
2023-05-11T21:56:43.573Z,101889.13
2023-05-11T21:59:45.569Z,101889.66
2023-05-11T22:02:48.191Z,101896.75
2023-05-11T22:05:50.302Z,101895.38
2023-05-11T22:08:52.347Z,101892.84
2023-05-11T22:11:54.300Z,101896.06
2023-05-11T22:14:56.781Z,101898.50
2023-05-11T22:17:59.213Z,101904.06
2023-05-11T22:21:01.161Z,101905.41
2023-05-11T22:24:04.360Z,101904.72
2023-05-11T22:27:08.645Z,101899.47
2023-05-11T22:30:11.264Z,101894.38
2023-05-11T22:33:13.288Z,101900.47
2023-05-11T22:36:15.330Z,101885.38
2023-05-11T22:39:17.450Z,101888.81
2023-05-11T22:42:20.263Z,101884.91
2023-05-11T22:45:22.998Z,101887.78
2023-05-11T22:48:25.169Z,101887.13
2023-05-11T22:51:27.351Z,101882.53
2023-05-11T22:54:29.519Z,101882.53
2023-05-11T22:57:31.500Z,101894.56
2023-05-11T23:00:33.841Z,101903.75
2023-05-11T23:03:36.080Z,101896.44
2023-05-11T23:06:38.107Z,101897.09
2023-05-11T23:09:40.278Z,101892.19
2023-05-11T23:12:42.503Z,101894.72
2023-05-11T23:15:44.688Z,101890.66
2023-05-11T23:18:46.924Z,101894.03
2023-05-11T23:21:49.580Z,101889.28
2023-05-11T23:24:52.072Z,101894.03
2023-05-11T23:27:55.255Z,101898.44
2023-05-11T23:30:57.405Z,101893.34
2023-05-11T23:33:59.683Z,101897.59
2023-05-11T23:37:01.815Z,101898.44
2023-05-11T23:40:04.420Z,101888.78
2023-05-11T23:43:06.958Z,101892.34
2023-05-11T23:46:08.904Z,101893.69
2023-05-11T23:49:10.986Z,101894.22
2023-05-11T23:52:13.044Z,101885.88
2023-05-11T23:55:15.240Z,101896.59
2023-05-11T23:58:17.247Z,101888.28
